sensor_id;sensor_type;location;lat;lon;timestamp;pressure;altitude;pressure_sealevel;temperature;humidity
54872;BME280;43914;57.680;11.982;2023-11-21T00:00:37;100788.62;;;0.52;100.00
54872;BME280;43914;57.680;11.982;2023-11-21T00:03:02;100786.94;;;0.51;100.00
54872;BME280;43914;57.680;11.982;2023-11-21T00:05:29;100784.81;;;0.53;100.00
54872;BME280;43914;57.680;11.982;2023-11-21T00:07:55;100782.56;;;0.55;100.00
54872;BME280;43914;57.680;11.982;2023-11-21T00:10:20;100784.66;;;0.57;100.00
54872;BME280;43914;57.680;11.982;2023-11-21T00:12:46;100787.83;;;0.57;100.00
54872;BME280;43914;57.680;11.982;2023-11-21T00:15:13;100794.16;;;0.60;100.00
54872;BME280;43914;57.680;11.982;2023-11-21T00:17:39;100797.45;;;0.63;100.00
54872;BME280;43914;57.680;11.982;2023-11-21T00:20:08;100798.86;;;0.65;100.00
54872;BME280;43914;57.680;11.982;2023-11-21T00:22:37;100795.77;;;0.67;100.00
54872;BME280;43914;57.680;11.982;2023-11-21T00:25:03;100799.10;;;0.69;100.00
54872;BME280;43914;57.680;11.982;2023-11-21T00:27:29;100800.95;;;0.70;100.00
54872;BME280;43914;57.680;11.982;2023-11-21T00:29:55;100801.99;;;0.73;100.00
54872;BME280;43914;57.680;11.982;2023-11-21T00:32:21;100796.38;;;0.75;100.00
54872;BME280;43914;57.680;11.982;2023-11-21T00:34:46;100798.48;;;0.75;100.00
54872;BME280;43914;57.680;11.982;2023-11-21T00:37:12;100798.36;;;0.77;100.00
54872;BME280;43914;57.680;11.982;2023-11-21T00:39:37;100798.36;;;0.79;100.00
54872;BME280;43914;57.680;11.982;2023-11-21T00:42:03;100808.14;;;0.80;100.00
54872;BME280;43914;57.680;11.982;2023-11-21T00:44:30;100806.79;;;0.82;100.00
54872;BME280;43914;57.680;11.982;2023-11-21T00:46:56;100810.09;;;0.82;100.00
54872;BME280;43914;57.680;11.982;2023-11-21T00:49:21;100820.21;;;0.84;100.00
54872;BME280;43914;57.680;11.982;2023-11-21T00:51:46;100825.86;;;0.86;100.00
54872;BME280;43914;57.680;11.982;2023-11-21T00:54:12;100829.20;;;0.89;100.00
54872;BME280;43914;57.680;11.982;2023-11-21T00:56:38;100830.05;;;0.89;100.00
54872;BME280;43914;57.680;11.982;2023-11-21T00:59:03;100836.98;;;0.91;100.00
54872;BME280;43914;57.680;11.982;2023-11-21T01:01:30;100838.23;;;0.93;100.00
54872;BME280;43914;57.680;11.982;2023-11-21T01:03:56;100838.64;;;0.94;100.00
54872;BME280;43914;57.680;11.982;2023-11-21T01:06:21;100836.41;;;0.96;100.00
54872;BME280;43914;57.680;11.982;2023-11-21T01:08:47;100833.45;;;0.97;100.00
54872;BME280;43914;57.680;11.982;2023-11-21T01:11:13;100834.31;;;1.00;100.00
54872;BME280;43914;57.680;11.982;2023-11-21T01:13:39;100831.63;;;1.01;100.00
54872;BME280;43914;57.680;11.982;2023-11-21T01:16:05;100832.15;;;1.01;100.00
54872;BME280;43914;57.680;11.982;2023-11-21T01:18:32;100842.52;;;1.04;100.00
54872;BME280;43914;57.680;11.982;2023-11-21T01:20:58;100839.32;;;1.04;100.00
54872;BME280;43914;57.680;11.982;2023-11-21T01:23:24;100845.07;;;1.05;100.00
54872;BME280;43914;57.680;11.982;2023-11-21T01:25:50;100848.98;;;1.04;100.00
54872;BME280;43914;57.680;11.982;2023-11-21T01:28:16;100851.26;;;1.05;100.00
54872;BME280;43914;57.680;11.982;2023-11-21T01:30:42;100856.40;;;1.04;100.00
54872;BME280;43914;57.680;11.982;2023-11-21T01:33:07;100856.48;;;1.03;100.00
54872;BME280;43914;57.680;11.982;2023-11-21T01:35:34;100855.52;;;1.04;100.00
54872;BME280;43914;57.680;11.982;2023-11-21T01:37:59;100862.67;;;1.05;100.00
54872;BME280;43914;57.680;11.982;2023-11-21T01:40:25;100864.23;;;1.04;100.00
54872;BME280;43914;57.680;11.982;2023-11-21T01:42:50;100870.11;;;1.03;100.00
54872;BME280;43914;57.680;11.982;2023-11-21T01:45:16;100876.85;;;1.02;100.00
54872;BME280;43914;57.680;11.982;2023-11-21T01:47:43;100877.22;;;1.02;100.00
54872;BME280;43914;57.680;11.982;2023-11-21T01:50:14;100873.17;;;1.02;100.00
54872;BME280;43914;57.680;11.982;2023-11-21T01:52:45;100879.34;;;1.02;100.00
54872;BME280;43914;57.680;11.982;2023-11-21T01:55:10;100881.30;;;1.02;100.00
54872;BME280;43914;57.680;11.982;2023-11-21T01:57:38;100882.41;;;1.01;100.00
54872;BME280;43914;57.680;11.982;2023-11-21T02:00:04;100884.54;;;1.01;100.00
54872;BME280;43914;57.680;11.982;2023-11-21T02:02:47;100886.64;;;1.01;100.00
54872;BME280;43914;57.680;11.982;2023-11-21T02:05:17;100895.61;;;1.02;100.00
54872;BME280;43914;57.680;11.982;2023-11-21T02:07:47;100896.44;;;1.00;100.00
54872;BME280;43914;57.680;11.982;2023-11-21T02:10:14;100901.20;;;1.00;100.00
54872;BME280;43914;57.680;11.982;2023-11-21T02:12:43;100900.90;;;0.99;100.00
54872;BME280;43914;57.680;11.982;2023-11-21T02:15:13;100901.71;;;1.00;100.00
54872;BME280;43914;57.680;11.982;2023-11-21T02:17:48;100900.52;;;1.00;100.00
54872;BME280;43914;57.680;11.982;2023-11-21T02:20:17;100900.55;;;0.99;100.00
54872;BME280;43914;57.680;11.982;2023-11-21T02:22:54;100906.40;;;0.99;100.00
54872;BME280;43914;57.680;11.982;2023-11-21T02:25:31;100909.70;;;0.97;100.00
54872;BME280;43914;57.680;11.982;2023-11-21T02:27:59;100909.90;;;0.99;100.00
54872;BME280;43914;57.680;11.982;2023-11-21T02:30:25;100911.92;;;1.00;100.00
54872;BME280;43914;57.680;11.982;2023-11-21T02:32:53;100912.52;;;0.99;100.00
54872;BME280;43914;57.680;11.982;2023-11-21T02:35:19;100919.66;;;1.01;100.00
54872;BME280;43914;57.680;11.982;2023-11-21T02:37:51;100920.28;;;0.99;100.00
54872;BME280;43914;57.680;11.982;2023-11-21T02:40:17;100927.94;;;1.01;100.00
54872;BME280;43914;57.680;11.982;2023-11-21T02:42:50;100930.11;;;1.03;100.00
54872;BME280;43914;57.680;11.982;2023-11-21T02:45:16;100934.94;;;1.04;100.00
54872;BME280;43914;57.680;11.982;2023-11-21T02:47:43;100935.40;;;1.05;100.00
54872;BME280;43914;57.680;11.982;2023-11-21T02:50:09;100940.95;;;1.07;100.00
54872;BME280;43914;57.680;11.982;2023-11-21T02:52:35;100939.61;;;1.08;100.00
54872;BME280;43914;57.680;11.982;2023-11-21T02:55:03;100941.15;;;1.08;100.00
54872;BME280;43914;57.680;11.982;2023-11-21T02:57:29;100946.33;;;1.07;100.00
54872;BME280;43914;57.680;11.982;2023-11-21T02:59:55;100947.61;;;1.09;100.00
54872;BME280;43914;57.680;11.982;2023-11-21T03:02:21;100950.92;;;1.10;100.00
54872;BME280;43914;57.680;11.982;2023-11-21T03:04:47;100951.33;;;1.09;100.00
54872;BME280;43914;57.680;11.982;2023-11-21T03:07:16;100954.48;;;1.09;100.00
54872;BME280;43914;57.680;11.982;2023-11-21T03:09:42;100955.89;;;1.09;100.00
54872;BME280;43914;57.680;11.982;2023-11-21T03:12:10;100958.04;;;1.09;100.00
54872;BME280;43914;57.680;11.982;2023-11-21T03:14:37;100964.61;;;1.11;100.00
54872;BME280;43914;57.680;11.982;2023-11-21T03:17:04;100964.42;;;1.11;100.00
54872;BME280;43914;57.680;11.982;2023-11-21T03:19:30;100969.23;;;1.10;100.00
54872;BME280;43914;57.680;11.982;2023-11-21T03:21:55;100970.68;;;1.10;100.00
54872;BME280;43914;57.680;11.982;2023-11-21T03:24:24;100972.77;;;1.10;100.00
54872;BME280;43914;57.680;11.982;2023-11-21T03:26:51;100972.28;;;1.10;100.00
54872;BME280;43914;57.680;11.982;2023-11-21T03:29:17;100974.21;;;1.10;100.00
54872;BME280;43914;57.680;11.982;2023-11-21T03:31:42;100978.77;;;1.10;100.00
54872;BME280;43914;57.680;11.982;2023-11-21T03:34:15;100979.53;;;1.09;100.00
54872;BME280;43914;57.680;11.982;2023-11-21T03:36:40;100982.64;;;1.10;100.00
54872;BME280;43914;57.680;11.982;2023-11-21T03:39:06;100983.39;;;1.10;100.00
54872;BME280;43914;57.680;11.982;2023-11-21T03:41:32;100983.54;;;1.08;100.00
54872;BME280;43914;57.680;11.982;2023-11-21T03:43:59;100985.67;;;1.05;100.00
54872;BME280;43914;57.680;11.982;2023-11-21T03:46:24;100992.95;;;1.04;100.00
54872;BME280;43914;57.680;11.982;2023-11-21T03:48:50;100996.52;;;1.04;100.00
54872;BME280;43914;57.680;11.982;2023-11-21T03:51:16;100998.85;;;1.04;100.00
54872;BME280;43914;57.680;11.982;2023-11-21T03:53:41;101002.09;;;1.00;100.00
54872;BME280;43914;57.680;11.982;2023-11-21T03:56:07;101004.25;;;1.00;100.00
54872;BME280;43914;57.680;11.982;2023-11-21T03:58:32;101005.15;;;0.99;100.00
54872;BME280;43914;57.680;11.982;2023-11-21T04:00:58;101011.20;;;0.99;100.00
54872;BME280;43914;57.680;11.982;2023-11-21T04:03:23;101015.98;;;0.99;100.00
54872;BME280;43914;57.680;11.982;2023-11-21T04:05:48;101017.48;;;0.99;100.00
54872;BME280;43914;57.680;11.982;2023-11-21T04:08:14;101025.23;;;1.00;100.00
54872;BME280;43914;57.680;11.982;2023-11-21T04:10:39;101026.83;;;1.00;100.00
54872;BME280;43914;57.680;11.982;2023-11-21T04:13:05;101029.59;;;0.98;100.00
54872;BME280;43914;57.680;11.982;2023-11-21T04:15:32;101032.65;;;0.97;100.00
54872;BME280;43914;57.680;11.982;2023-11-21T04:17:57;101032.09;;;0.98;100.00
54872;BME280;43914;57.680;11.982;2023-11-21T04:20:24;101034.79;;;0.97;100.00
54872;BME280;43914;57.680;11.982;2023-11-21T04:22:49;101038.54;;;0.97;100.00
54872;BME280;43914;57.680;11.982;2023-11-21T04:25:15;101045.60;;;0.96;100.00
54872;BME280;43914;57.680;11.982;2023-11-21T04:27:41;101044.34;;;0.94;100.00
54872;BME280;43914;57.680;11.982;2023-11-21T04:30:12;101044.48;;;0.92;100.00
54872;BME280;43914;57.680;11.982;2023-11-21T04:32:38;101046.26;;;0.92;100.00
54872;BME280;43914;57.680;11.982;2023-11-21T04:35:05;101048.96;;;0.91;100.00
54872;BME280;43914;57.680;11.982;2023-11-21T04:37:31;101046.53;;;0.89;100.00
54872;BME280;43914;57.680;11.982;2023-11-21T04:39:56;101055.30;;;0.87;100.00
54872;BME280;43914;57.680;11.982;2023-11-21T04:42:22;101062.54;;;0.84;100.00
54872;BME280;43914;57.680;11.982;2023-11-21T04:44:48;101064.94;;;0.83;100.00
54872;BME280;43914;57.680;11.982;2023-11-21T04:47:14;101072.77;;;0.82;100.00
54872;BME280;43914;57.680;11.982;2023-11-21T04:49:43;101070.67;;;0.79;100.00
54872;BME280;43914;57.680;11.982;2023-11-21T04:52:09;101074.41;;;0.76;100.00
54872;BME280;43914;57.680;11.982;2023-11-21T04:54:35;101076.16;;;0.74;100.00
54872;BME280;43914;57.680;11.982;2023-11-21T04:57:01;101079.85;;;0.72;100.00
54872;BME280;43914;57.680;11.982;2023-11-21T04:59:26;101083.29;;;0.70;100.00
54872;BME280;43914;57.680;11.982;2023-11-21T05:01:53;101091.14;;;0.69;100.00
54872;BME280;43914;57.680;11.982;2023-11-21T05:04:19;101097.79;;;0.68;100.00
54872;BME280;43914;57.680;11.982;2023-11-21T05:06:47;101099.36;;;0.68;100.00
54872;BME280;43914;57.680;11.982;2023-11-21T05:09:13;101104.64;;;0.68;100.00
54872;BME280;43914;57.680;11.982;2023-11-21T05:11:38;101107.02;;;0.69;100.00
54872;BME280;43914;57.680;11.982;2023-11-21T05:14:06;101111.41;;;0.69;100.00
54872;BME280;43914;57.680;11.982;2023-11-21T05:16:31;101112.16;;;0.71;100.00
54872;BME280;43914;57.680;11.982;2023-11-21T05:18:57;101114.96;;;0.71;100.00
54872;BME280;43914;57.680;11.982;2023-11-21T05:21:27;101115.26;;;0.72;100.00
54872;BME280;43914;57.680;11.982;2023-11-21T05:23:52;101117.80;;;0.71;100.00
54872;BME280;43914;57.680;11.982;2023-11-21T05:26:18;101125.05;;;0.71;100.00
54872;BME280;43914;57.680;11.982;2023-11-21T05:28:43;101134.30;;;0.70;100.00
54872;BME280;43914;57.680;11.982;2023-11-21T05:31:09;101137.86;;;0.69;100.00
54872;BME280;43914;57.680;11.982;2023-11-21T05:33:36;101140.91;;;0.69;100.00
54872;BME280;43914;57.680;11.982;2023-11-21T05:36:01;101146.77;;;0.68;100.00
54872;BME280;43914;57.680;11.982;2023-11-21T05:38:27;101147.14;;;0.66;100.00
54872;BME280;43914;57.680;11.982;2023-11-21T05:40:52;101154.78;;;0.62;100.00
54872;BME280;43914;57.680;11.982;2023-11-21T05:43:18;101159.86;;;0.60;100.00
54872;BME280;43914;57.680;11.982;2023-11-21T05:45:44;101163.57;;;0.57;100.00
54872;BME280;43914;57.680;11.982;2023-11-21T05:48:10;101165.73;;;0.56;100.00
54872;BME280;43914;57.680;11.982;2023-11-21T05:50:35;101169.52;;;0.55;100.00
54872;BME280;43914;57.680;11.982;2023-11-21T05:53:04;101168.50;;;0.52;100.00
54872;BME280;43914;57.680;11.982;2023-11-21T05:55:29;101174.57;;;0.51;100.00
54872;BME280;43914;57.680;11.982;2023-11-21T05:57:55;101179.56;;;0.51;100.00
54872;BME280;43914;57.680;11.982;2023-11-21T06:00:20;101182.24;;;0.50;100.00
54872;BME280;43914;57.680;11.982;2023-11-21T06:02:51;101184.71;;;0.48;100.00
54872;BME280;43914;57.680;11.982;2023-11-21T06:05:22;101184.70;;;0.45;100.00
54872;BME280;43914;57.680;11.982;2023-11-21T06:07:52;101189.46;;;0.42;100.00
54872;BME280;43914;57.680;11.982;2023-11-21T06:10:21;101201.29;;;0.42;100.00
54872;BME280;43914;57.680;11.982;2023-11-21T06:12:47;101206.84;;;0.41;100.00
54872;BME280;43914;57.680;11.982;2023-11-21T06:15:12;101212.55;;;0.40;100.00
54872;BME280;43914;57.680;11.982;2023-11-21T06:17:47;101218.02;;;0.40;100.00
54872;BME280;43914;57.680;11.982;2023-11-21T06:20:15;101214.50;;;0.40;100.00
54872;BME280;43914;57.680;11.982;2023-11-21T06:22:44;101223.23;;;0.41;100.00
54872;BME280;43914;57.680;11.982;2023-11-21T06:25:12;101228.16;;;0.41;100.00
54872;BME280;43914;57.680;11.982;2023-11-21T06:27:42;101231.36;;;0.43;100.00
54872;BME280;43914;57.680;11.982;2023-11-21T06:30:10;101237.71;;;0.43;100.00
54872;BME280;43914;57.680;11.982;2023-11-21T06:32:38;101246.10;;;0.45;100.00
54872;BME280;43914;57.680;11.982;2023-11-21T06:35:05;101251.23;;;0.44;100.00
54872;BME280;43914;57.680;11.982;2023-11-21T06:37:33;101251.04;;;0.44;100.00
54872;BME280;43914;57.680;11.982;2023-11-21T06:40:00;101257.33;;;0.45;100.00
54872;BME280;43914;57.680;11.982;2023-11-21T06:42:26;101260.08;;;0.46;100.00
54872;BME280;43914;57.680;11.982;2023-11-21T06:44:52;101266.41;;;0.47;100.00
54872;BME280;43914;57.680;11.982;2023-11-21T06:47:18;101268.42;;;0.48;100.00
54872;BME280;43914;57.680;11.982;2023-11-21T06:49:47;101269.77;;;0.49;100.00
54872;BME280;43914;57.680;11.982;2023-11-21T06:52:16;101277.44;;;0.50;100.00
54872;BME280;43914;57.680;11.982;2023-11-21T06:54:42;101281.09;;;0.51;100.00
54872;BME280;43914;57.680;11.982;2023-11-21T06:57:08;101283.36;;;0.51;100.00
54872;BME280;43914;57.680;11.982;2023-11-21T06:59:33;101287.77;;;0.54;100.00
54872;BME280;43914;57.680;11.982;2023-11-21T07:01:59;101286.55;;;0.56;100.00
54872;BME280;43914;57.680;11.982;2023-11-21T07:04:24;101288.16;;;0.59;100.00
54872;BME280;43914;57.680;11.982;2023-11-21T07:06:56;101293.39;;;0.62;100.00
54872;BME280;43914;57.680;11.982;2023-11-21T07:09:21;101296.04;;;0.65;100.00
54872;BME280;43914;57.680;11.982;2023-11-21T07:11:50;101297.98;;;0.67;100.00
54872;BME280;43914;57.680;11.982;2023-11-21T07:14:16;101300.63;;;0.73;100.00
54872;BME280;43914;57.680;11.982;2023-11-21T07:16:42;101305.80;;;0.74;100.00
54872;BME280;43914;57.680;11.982;2023-11-21T07:19:08;101308.86;;;0.75;100.00
54872;BME280;43914;57.680;11.982;2023-11-21T07:21:34;101307.16;;;0.78;100.00
54872;BME280;43914;57.680;11.982;2023-11-21T07:24:01;101312.54;;;0.79;100.00
54872;BME280;43914;57.680;11.982;2023-11-21T07:26:27;101318.57;;;0.81;100.00
54872;BME280;43914;57.680;11.982;2023-11-21T07:28:54;101318.39;;;0.83;100.00
54872;BME280;43914;57.680;11.982;2023-11-21T07:31:24;101322.52;;;0.85;100.00
54872;BME280;43914;57.680;11.982;2023-11-21T07:33:50;101325.10;;;0.86;100.00
54872;BME280;43914;57.680;11.982;2023-11-21T07:36:17;101328.26;;;0.86;100.00
54872;BME280;43914;57.680;11.982;2023-11-21T07:38:49;101330.85;;;0.90;100.00
54872;BME280;43914;57.680;11.982;2023-11-21T07:41:15;101336.66;;;0.93;100.00
54872;BME280;43914;57.680;11.982;2023-11-21T07:43:42;101338.66;;;0.97;100.00
54872;BME280;43914;57.680;11.982;2023-11-21T07:46:07;101343.58;;;1.00;100.00
54872;BME280;43914;57.680;11.982;2023-11-21T07:48:34;101345.27;;;1.01;100.00
54872;BME280;43914;57.680;11.982;2023-11-21T07:51:01;101348.65;;;1.03;100.00
54872;BME280;43914;57.680;11.982;2023-11-21T07:53:29;101355.27;;;1.04;100.00
54872;BME280;43914;57.680;11.982;2023-11-21T07:56:02;101354.27;;;1.06;100.00
54872;BME280;43914;57.680;11.982;2023-11-21T07:58:28;101354.23;;;1.09;100.00
54872;BME280;43914;57.680;11.982;2023-11-21T08:00:53;101355.71;;;1.10;100.00
54872;BME280;43914;57.680;11.982;2023-11-21T08:03:19;101358.29;;;1.14;100.00
54872;BME280;43914;57.680;11.982;2023-11-21T08:05:44;101355.51;;;1.13;100.00
54872;BME280;43914;57.680;11.982;2023-11-21T08:08:10;101356.85;;;1.14;100.00
54872;BME280;43914;57.680;11.982;2023-11-21T08:10:35;101358.30;;;1.14;100.00
54872;BME280;43914;57.680;11.982;2023-11-21T08:13:02;101368.39;;;1.13;100.00
54872;BME280;43914;57.680;11.982;2023-11-21T08:15:27;101366.95;;;1.11;100.00
54872;BME280;43914;57.680;11.982;2023-11-21T08:17:53;101367.06;;;1.10;100.00
54872;BME280;43914;57.680;11.982;2023-11-21T08:20:19;101370.92;;;1.07;100.00
54872;BME280;43914;57.680;11.982;2023-11-21T08:22:44;101372.36;;;1.05;100.00
54872;BME280;43914;57.680;11.982;2023-11-21T08:25:10;101377.66;;;1.04;100.00
54872;BME280;43914;57.680;11.982;2023-11-21T08:27:36;101377.39;;;1.03;100.00
54872;BME280;43914;57.680;11.982;2023-11-21T08:30:05;101375.34;;;1.02;100.00
54872;BME280;43914;57.680;11.982;2023-11-21T08:32:32;101380.97;;;1.03;100.00
54872;BME280;43914;57.680;11.982;2023-11-21T08:35:01;101387.32;;;1.00;100.00
54872;BME280;43914;57.680;11.982;2023-11-21T08:37:26;101389.89;;;0.98;100.00
54872;BME280;43914;57.680;11.982;2023-11-21T08:39:53;101389.73;;;0.95;100.00
54872;BME280;43914;57.680;11.982;2023-11-21T08:42:19;101391.94;;;0.94;100.00
54872;BME280;43914;57.680;11.982;2023-11-21T08:44:45;101394.95;;;0.91;100.00
54872;BME280;43914;57.680;11.982;2023-11-21T08:47:11;101400.48;;;0.91;100.00
54872;BME280;43914;57.680;11.982;2023-11-21T08:49:36;101401.71;;;0.91;100.00
54872;BME280;43914;57.680;11.982;2023-11-21T08:52:03;101404.78;;;0.90;100.00
54872;BME280;43914;57.680;11.982;2023-11-21T08:54:30;101413.36;;;0.91;100.00
54872;BME280;43914;57.680;11.982;2023-11-21T08:56:56;101420.33;;;0.92;100.00
54872;BME280;43914;57.680;11.982;2023-11-21T08:59:24;101424.66;;;0.93;100.00
54872;BME280;43914;57.680;11.982;2023-11-21T09:01:50;101426.95;;;0.96;100.00
54872;BME280;43914;57.680;11.982;2023-11-21T09:04:16;101429.23;;;0.98;100.00
54872;BME280;43914;57.680;11.982;2023-11-21T09:06:42;101431.16;;;1.02;100.00
54872;BME280;43914;57.680;11.982;2023-11-21T09:09:08;101436.44;;;1.05;100.00
54872;BME280;43914;57.680;11.982;2023-11-21T09:11:36;101435.30;;;1.05;100.00
54872;BME280;43914;57.680;11.982;2023-11-21T09:14:02;101436.73;;;1.05;100.00
54872;BME280;43914;57.680;11.982;2023-11-21T09:16:28;101443.66;;;1.07;100.00
54872;BME280;43914;57.680;11.982;2023-11-21T09:18:54;101448.73;;;1.08;100.00
54872;BME280;43914;57.680;11.982;2023-11-21T09:21:19;101450.29;;;1.08;100.00
54872;BME280;43914;57.680;11.982;2023-11-21T09:23:45;101454.09;;;1.09;100.00
54872;BME280;43914;57.680;11.982;2023-11-21T09:26:11;101452.91;;;1.11;100.00
54872;BME280;43914;57.680;11.982;2023-11-21T09:28:37;101457.10;;;1.14;100.00
54872;BME280;43914;57.680;11.982;2023-11-21T09:31:05;101460.03;;;1.18;100.00
54872;BME280;43914;57.680;11.982;2023-11-21T09:33:34;101464.08;;;1.21;100.00
54872;BME280;43914;57.680;11.982;2023-11-21T09:35:59;101465.20;;;1.23;100.00
54872;BME280;43914;57.680;11.982;2023-11-21T09:38:25;101470.69;;;1.28;100.00
54872;BME280;43914;57.680;11.982;2023-11-21T09:40:51;101470.58;;;1.29;100.00
54872;BME280;43914;57.680;11.982;2023-11-21T09:43:18;101469.55;;;1.31;100.00
54872;BME280;43914;57.680;11.982;2023-11-21T09:45:48;101473.54;;;1.33;100.00
54872;BME280;43914;57.680;11.982;2023-11-21T09:48:19;101477.17;;;1.33;100.00
54872;BME280;43914;57.680;11.982;2023-11-21T09:50:46;101478.02;;;1.37;100.00
54872;BME280;43914;57.680;11.982;2023-11-21T09:53:19;101484.47;;;1.40;100.00
54872;BME280;43914;57.680;11.982;2023-11-21T09:55:51;101480.91;;;1.43;100.00
54872;BME280;43914;57.680;11.982;2023-11-21T09:58:18;101483.41;;;1.46;100.00
54872;BME280;43914;57.680;11.982;2023-11-21T10:00:50;101486.17;;;1.47;100.00
54872;BME280;43914;57.680;11.982;2023-11-21T10:03:17;101492.64;;;1.45;100.00
54872;BME280;43914;57.680;11.982;2023-11-21T10:05:44;101495.17;;;1.44;100.00
54872;BME280;43914;57.680;11.982;2023-11-21T10:08:12;101500.52;;;1.46;100.00
54872;BME280;43914;57.680;11.982;2023-11-21T10:10:43;101507.38;;;1.49;100.00
54872;BME280;43914;57.680;11.982;2023-11-21T10:13:13;101509.03;;;1.51;100.00
54872;BME280;43914;57.680;11.982;2023-11-21T10:15:42;101509.33;;;1.49;100.00
54872;BME280;43914;57.680;11.982;2023-11-21T10:18:14;101511.06;;;1.47;100.00
54872;BME280;43914;57.680;11.982;2023-11-21T10:20:44;101513.17;;;1.44;100.00
54872;BME280;43914;57.680;11.982;2023-11-21T10:23:26;101516.66;;;1.40;100.00
54872;BME280;43914;57.680;11.982;2023-11-21T10:25:52;101518.36;;;1.38;100.00
54872;BME280;43914;57.680;11.982;2023-11-21T10:28:18;101522.46;;;1.40;100.00
54872;BME280;43914;57.680;11.982;2023-11-21T10:30:45;101522.61;;;1.40;100.00
54872;BME280;43914;57.680;11.982;2023-11-21T10:33:11;101523.14;;;1.40;100.00
54872;BME280;43914;57.680;11.982;2023-11-21T10:35:47;101529.11;;;1.41;100.00
54872;BME280;43914;57.680;11.982;2023-11-21T10:38:17;101532.13;;;1.41;100.00
54872;BME280;43914;57.680;11.982;2023-11-21T10:40:43;101532.77;;;1.42;100.00
54872;BME280;43914;57.680;11.982;2023-11-21T10:43:11;101531.49;;;1.45;100.00
54872;BME280;43914;57.680;11.982;2023-11-21T10:45:38;101535.79;;;1.47;100.00
54872;BME280;43914;57.680;11.982;2023-11-21T10:48:08;101538.55;;;1.50;100.00
54872;BME280;43914;57.680;11.982;2023-11-21T10:50:35;101547.70;;;1.56;100.00
54872;BME280;43914;57.680;11.982;2023-11-21T10:53:04;101551.63;;;1.63;100.00
54872;BME280;43914;57.680;11.982;2023-11-21T10:55:31;101554.97;;;1.66;100.00
54872;BME280;43914;57.680;11.982;2023-11-21T10:58:06;101553.39;;;1.68;100.00
54872;BME280;43914;57.680;11.982;2023-11-21T11:00:36;101556.05;;;1.71;100.00
54872;BME280;43914;57.680;11.982;2023-11-21T11:03:03;101565.38;;;1.71;100.00
54872;BME280;43914;57.680;11.982;2023-11-21T11:05:29;101565.30;;;1.72;100.00
54872;BME280;43914;57.680;11.982;2023-11-21T11:08:08;101569.59;;;1.75;100.00
54872;BME280;43914;57.680;11.982;2023-11-21T11:10:35;101569.67;;;1.76;100.00
54872;BME280;43914;57.680;11.982;2023-11-21T11:13:02;101564.86;;;1.79;100.00
54872;BME280;43914;57.680;11.982;2023-11-21T11:15:28;101559.04;;;1.79;100.00
54872;BME280;43914;57.680;11.982;2023-11-21T11:17:54;101564.02;;;1.81;100.00
54872;BME280;43914;57.680;11.982;2023-11-21T11:20:24;101560.73;;;1.85;100.00
54872;BME280;43914;57.680;11.982;2023-11-21T11:26:12;101572.02;;;1.88;100.00
54872;BME280;43914;57.680;11.982;2023-11-21T11:34:13;101586.20;;;2.03;100.00
54872;BME280;43914;57.680;11.982;2023-11-21T11:39:40;101583.43;;;2.10;100.00
54872;BME280;43914;57.680;11.982;2023-11-21T11:42:13;101578.06;;;2.13;100.00
54872;BME280;43914;57.680;11.982;2023-11-21T11:47:26;101578.98;;;2.25;100.00
54872;BME280;43914;57.680;11.982;2023-11-21T11:50:03;101581.61;;;2.33;100.00
54872;BME280;43914;57.680;11.982;2023-11-21T11:52:44;101585.52;;;2.36;100.00
54872;BME280;43914;57.680;11.982;2023-11-21T11:55:15;101583.80;;;2.35;100.00
54872;BME280;43914;57.680;11.982;2023-11-21T11:57:54;101582.25;;;2.34;100.00
54872;BME280;43914;57.680;11.982;2023-11-21T12:00:33;101586.44;;;2.40;100.00
54872;BME280;43914;57.680;11.982;2023-11-21T12:03:04;101585.27;;;2.42;100.00
54872;BME280;43914;57.680;11.982;2023-11-21T12:05:32;101588.08;;;2.44;100.00
54872;BME280;43914;57.680;11.982;2023-11-21T12:08:01;101587.84;;;2.45;100.00
54872;BME280;43914;57.680;11.982;2023-11-21T12:10:33;101592.83;;;2.44;100.00
54872;BME280;43914;57.680;11.982;2023-11-21T12:13:10;101595.48;;;2.42;100.00
54872;BME280;43914;57.680;11.982;2023-11-21T12:15:37;101595.55;;;2.41;100.00
54872;BME280;43914;57.680;11.982;2023-11-21T12:18:04;101596.27;;;2.43;100.00
54872;BME280;43914;57.680;11.982;2023-11-21T12:20:31;101598.21;;;2.46;100.00
54872;BME280;43914;57.680;11.982;2023-11-21T12:23:00;101597.77;;;2.47;100.00
54872;BME280;43914;57.680;11.982;2023-11-21T12:25:30;101594.16;;;2.48;100.00
54872;BME280;43914;57.680;11.982;2023-11-21T12:28:00;101595.13;;;2.50;100.00
54872;BME280;43914;57.680;11.982;2023-11-21T12:30:27;101598.25;;;2.50;100.00
54872;BME280;43914;57.680;11.982;2023-11-21T12:32:55;101602.89;;;2.50;100.00
54872;BME280;43914;57.680;11.982;2023-11-21T12:35:26;101602.98;;;2.49;100.00
54872;BME280;43914;57.680;11.982;2023-11-21T12:37:53;101608.91;;;2.47;100.00
54872;BME280;43914;57.680;11.982;2023-11-21T12:40:19;101612.23;;;2.48;100.00
54872;BME280;43914;57.680;11.982;2023-11-21T12:42:52;101616.73;;;2.47;100.00
54872;BME280;43914;57.680;11.982;2023-11-21T12:45:20;101616.88;;;2.44;100.00
54872;BME280;43914;57.680;11.982;2023-11-21T12:47:47;101617.29;;;2.44;100.00
54872;BME280;43914;57.680;11.982;2023-11-21T12:50:15;101612.93;;;2.43;100.00
54872;BME280;43914;57.680;11.982;2023-11-21T12:52:42;101614.86;;;2.41;100.00
54872;BME280;43914;57.680;11.982;2023-11-21T12:55:09;101611.49;;;2.36;100.00